Time;durP1;ratioP1;P1;durP2;ratioP2;P2;SDS_P1;SDS_P2;PMS_P1;PMS_P2;Temp;Humidity;BMP_temperature;BMP_pressure;BME280_temperature;BME280_humidity;BME280_pressure;Samples;Min_cycle;Max_cycle;Signal;HPM_P1;HPM_P2
2021/06/10 00:01:21;;;;;;;13.65;9.93;;;18.50;99.90;;;;;;5094475;28;20371;-69
2021/06/10 00:04:25;;;;;;;13.77;10.30;;;18.50;99.90;;;;;;5094796;28;20051;-69
2021/06/10 00:07:29;;;;;;;11.13;9.15;;;18.50;99.90;;;;;;5094479;28;20047;-69
2021/06/10 00:10:35;;;;;;;13.43;10.95;;;18.50;99.90;;;;;;5093919;28;20051;-69
2021/06/10 00:13:40;;;;;;;12.55;9.73;;;18.50;99.90;;;;;;5095032;28;20043;-69
2021/06/10 00:16:44;;;;;;;19.08;11.02;;;18.60;99.90;;;;;;5095052;28;20051;-68
2021/06/10 00:19:48;;;;;;;14.98;9.80;;;18.50;99.90;;;;;;5094230;28;20652;-69
2021/06/10 00:22:54;;;;;;;13.02;10.88;;;18.40;99.90;;;;;;5094119;28;20046;-69
2021/06/10 00:25:59;;;;;;;14.02;11.55;;;18.40;99.90;;;;;;5094413;28;20047;-69
2021/06/10 00:29:03;;;;;;;16.35;11.32;;;18.40;99.90;;;;;;5094094;28;20035;-69
2021/06/10 00:32:08;;;;;;;17.95;12.38;;;18.20;99.90;;;;;;5093177;28;20046;-69
2021/06/10 00:35:13;;;;;;;12.40;10.68;;;18.20;99.90;;;;;;5093725;28;20063;-69
2021/06/10 00:38:17;;;;;;;16.88;12.32;;;18.20;99.90;;;;;;5092982;28;20043;-69
2021/06/10 00:41:21;;;;;;;13.82;11.57;;;18.00;99.90;;;;;;5072992;28;20067;-69
2021/06/10 00:44:26;;;;;;;15.18;11.45;;;18.00;99.90;;;;;;5073764;28;20510;-69
2021/06/10 00:47:30;;;;;;;13.25;11.73;;;17.90;99.90;;;;;;5072961;28;20047;-69
2021/06/10 00:50:41;;;;;;;16.60;12.35;;;17.90;99.90;;;;;;5080505;28;20046;-69
2021/06/10 00:53:45;;;;;;;16.42;12.35;;;17.80;99.90;;;;;;5093411;28;20047;-69
2021/06/10 00:56:51;;;;;;;12.52;11.23;;;17.80;99.90;;;;;;5093491;28;20482;-69
2021/06/10 00:59:56;;;;;;;13.02;11.40;;;17.80;99.90;;;;;;5093035;28;20387;-69
2021/06/10 01:02:59;;;;;;;15.35;11.65;;;17.80;99.90;;;;;;5093183;28;20513;-69
2021/06/10 01:06:12;;;;;;;17.98;12.82;;;17.80;99.90;;;;;;5092761;28;20047;-69
2021/06/10 01:09:25;;;;;;;12.50;10.63;;;17.80;99.90;;;;;;5092925;28;20387;-69
2021/06/10 01:13:07;;;;;;;14.15;12.65;;;17.70;99.90;;;;;;5093005;28;20047;-69
2021/06/10 01:16:14;;;;;;;13.88;11.55;;;17.60;99.90;;;;;;5092915;28;20086;-69
2021/06/10 01:20:04;;;;;;;14.52;12.13;;;17.60;99.90;;;;;;5087618;28;20031;-69
2021/06/10 01:23:46;;;;;;;14.90;11.48;;;17.60;99.90;;;;;;5086398;28;20067;-69
2021/06/10 01:27:19;;;;;;;18.85;11.75;;;17.50;99.90;;;;;;5077656;28;20038;-69
2021/06/10 01:30:33;;;;;;;12.57;9.30;;;17.40;99.90;;;;;;5084287;28;20075;-69
2021/06/10 01:33:52;;;;;;;12.00;9.70;;;17.40;99.90;;;;;;5092910;28;20047;-69
2021/06/10 01:36:58;;;;;;;10.50;9.20;;;17.40;99.90;;;;;;5092300;28;20067;-69
2021/06/10 01:40:04;;;;;;;8.70;7.65;;;17.40;99.90;;;;;;5086636;28;20383;-70
2021/06/10 01:43:09;;;;;;;8.60;7.72;;;17.40;99.90;;;;;;5092069;28;20043;-69
2021/06/10 01:46:15;;;;;;;9.85;6.88;;;17.40;99.90;;;;;;5092355;28;20434;-69
2021/06/10 01:49:20;;;;;;;8.07;7.22;;;17.40;99.90;;;;;;5091934;28;20051;-69
2021/06/10 01:52:26;;;;;;;10.05;6.85;;;17.40;99.90;;;;;;5091504;28;20051;-69
2021/06/10 01:55:32;;;;;;;9.63;6.88;;;17.40;99.90;;;;;;5080585;28;20058;-69
2021/06/10 01:58:37;;;;;;;9.20;7.15;;;17.40;99.90;;;;;;5092210;28;20043;-68
2021/06/10 02:01:42;;;;;;;10.82;8.10;;;17.40;99.90;;;;;;5090010;28;20043;-69
2021/06/10 02:04:47;;;;;;;9.27;8.10;;;17.30;99.90;;;;;;5090968;28;20047;-69
2021/06/10 02:07:52;;;;;;;11.48;8.80;;;17.30;99.90;;;;;;5091726;28;20047;-69
2021/06/10 02:10:58;;;;;;;12.52;8.40;;;17.30;99.90;;;;;;5091077;28;20047;-69
2021/06/10 02:14:04;;;;;;;11.02;8.52;;;17.20;99.90;;;;;;5078903;28;20051;-68
2021/06/10 02:17:09;;;;;;;12.60;7.90;;;17.20;99.90;;;;;;5090781;28;20039;-69
2021/06/10 02:20:17;;;;;;;9.30;7.38;;;17.20;99.90;;;;;;5086381;28;20055;-69
2021/06/10 02:23:21;;;;;;;10.82;8.65;;;17.20;99.90;;;;;;5091560;28;20051;-69
2021/06/10 02:26:25;;;;;;;7.97;6.82;;;17.00;99.90;;;;;;5091886;28;20058;-68
2021/06/10 02:29:29;;;;;;;7.55;6.78;;;16.90;99.90;;;;;;5091908;28;20398;-68
2021/06/10 02:32:33;;;;;;;9.15;6.25;;;16.90;99.90;;;;;;5091763;28;20055;-69
2021/06/10 02:35:38;;;;;;;9.48;7.78;;;16.80;99.90;;;;;;5091497;28;20047;-69
2021/06/10 02:38:52;;;;;;;12.07;9.00;;;16.70;99.90;;;;;;5091927;28;20050;-69
2021/06/10 02:41:57;;;;;;;11.02;8.35;;;16.60;99.90;;;;;;5090661;28;20051;-69
2021/06/10 02:45:01;;;;;;;14.20;8.85;;;16.50;99.90;;;;;;5092014;28;20047;-69
2021/06/10 02:48:07;;;;;;;8.98;8.07;;;16.60;99.90;;;;;;5091700;28;20054;-69
2021/06/10 02:51:12;;;;;;;9.68;8.07;;;16.50;99.90;;;;;;5090156;28;20051;-69
2021/06/10 02:54:19;;;;;;;12.27;9.20;;;16.50;99.90;;;;;;5091630;28;20039;-69
2021/06/10 02:57:25;;;;;;;10.07;7.75;;;16.40;99.90;;;;;;5091813;28;20043;-69
2021/06/10 03:00:33;;;;;;;12.32;9.07;;;16.40;99.90;;;;;;5081739;28;20530;-69
2021/06/10 03:03:38;;;;;;;11.25;9.40;;;16.30;99.90;;;;;;5084052;28;20055;-69
2021/06/10 03:06:43;;;;;;;9.68;8.65;;;16.20;99.90;;;;;;5088228;28;20047;-69
2021/06/10 03:09:48;;;;;;;9.85;7.72;;;16.30;99.90;;;;;;5071439;28;20067;-69
2021/06/10 03:12:54;;;;;;;10.07;7.80;;;16.30;99.90;;;;;;5071151;28;20060;-69
2021/06/10 03:16:00;;;;;;;14.15;8.90;;;16.40;99.90;;;;;;5080386;28;20521;-69
2021/06/10 03:19:05;;;;;;;10.38;9.20;;;16.50;99.90;;;;;;5090916;28;20661;-69
2021/06/10 03:22:10;;;;;;;15.27;8.40;;;16.50;99.90;;;;;;5089939;28;20059;-69
2021/06/10 03:25:15;;;;;;;9.10;8.05;;;16.40;99.90;;;;;;5090274;28;20058;-69
2021/06/10 03:28:21;;;;;;;15.07;8.77;;;16.30;99.90;;;;;;5090970;28;20047;-69
2021/06/10 03:31:26;;;;;;;12.55;8.98;;;16.20;99.90;;;;;;5089737;28;20391;-69
2021/06/10 03:34:32;;;;;;;10.57;8.10;;;16.20;99.90;;;;;;5075843;28;20051;-69
2021/06/10 03:37:38;;;;;;;10.82;8.90;;;16.20;99.90;;;;;;5090138;28;20043;-69
2021/06/10 03:40:45;;;;;;;10.57;9.48;;;16.30;99.90;;;;;;5097031;28;20047;-68
2021/06/10 03:43:51;;;;;;;14.73;10.00;;;16.10;99.90;;;;;;5097283;28;20054;-69
2021/06/10 03:46:56;;;;;;;11.30;9.50;;;16.00;99.90;;;;;;5097115;28;20051;-69
2021/06/10 03:50:00;;;;;;;12.43;9.18;;;15.90;99.90;;;;;;5096915;28;20047;-68
2021/06/10 03:53:08;;;;;;;12.43;10.35;;;15.80;99.90;;;;;;5096660;28;20552;-69
2021/06/10 03:56:12;;;;;;;15.05;11.43;;;15.80;99.90;;;;;;5097401;28;20051;-69
2021/06/10 03:59:16;;;;;;;14.70;10.02;;;15.80;99.90;;;;;;5077155;28;20043;-68
2021/06/10 04:02:20;;;;;;;12.07;9.82;;;15.80;99.90;;;;;;5093287;28;20058;-69
2021/06/10 04:05:28;;;;;;;11.80;10.02;;;15.80;99.90;;;;;;5096822;28;20050;-69
2021/06/10 04:08:32;;;;;;;11.05;9.85;;;15.70;99.90;;;;;;5077016;28;20411;-69
2021/06/10 04:11:39;;;;;;;11.80;10.35;;;15.70;99.90;;;;;;5076302;28;20493;-68
2021/06/10 04:14:43;;;;;;;13.43;9.93;;;15.70;99.90;;;;;;5077063;28;20051;-69
2021/06/10 04:17:48;;;;;;;18.67;10.02;;;15.80;99.90;;;;;;5076952;28;20047;-69
2021/06/10 04:20:52;;;;;;;12.65;10.57;;;16.00;99.90;;;;;;5082122;28;20051;-69
2021/06/10 04:23:57;;;;;;;13.38;10.00;;;16.10;99.90;;;;;;5095950;28;20039;-69
2021/06/10 04:27:02;;;;;;;12.80;9.93;;;16.30;99.90;;;;;;5096482;28;20099;-68
2021/06/10 04:30:11;;;;;;;15.15;9.98;;;17.20;99.90;;;;;;5095623;28;20047;-68
2021/06/10 04:33:17;;;;;;;12.98;8.80;;;18.70;99.90;;;;;;5095892;28;20043;-69
2021/06/10 04:36:21;;;;;;;9.85;8.50;;;20.30;99.90;;;;;;5095934;28;20047;-68
2021/06/10 04:39:25;;;;;;;8.77;7.13;;;21.80;99.90;;;;;;5096510;28;20039;-68
2021/06/10 04:42:30;;;;;;;10.85;8.10;;;22.90;99.90;;;;;;5094757;28;20042;-69
2021/06/10 04:45:34;;;;;;;11.93;8.00;;;23.60;99.90;;;;;;5093061;28;20042;-69
2021/06/10 04:48:38;;;;;;;10.50;7.38;;;24.30;99.90;;;;;;5091438;28;20047;-68
2021/06/10 04:51:43;;;;;;;12.82;8.25;;;24.20;99.90;;;;;;5089443;28;20039;-69
2021/06/10 04:54:47;;;;;;;10.95;8.77;;;24.50;99.90;;;;;;5085530;28;20051;-69
2021/06/10 04:57:51;;;;;;;9.93;7.57;;;25.30;99.90;;;;;;5092377;28;20062;-70
2021/06/10 05:00:57;;;;;;;9.70;6.80;;;26.30;99.10;;;;;;5092827;28;20055;-70
2021/06/10 05:04:01;;;;;;;10.38;7.28;;;26.60;98.60;;;;;;5092321;28;20043;-70
2021/06/10 05:07:05;;;;;;;12.55;8.35;;;26.90;97.90;;;;;;5092459;28;20502;-69
2021/06/10 05:10:09;;;;;;;12.48;7.78;;;25.10;98.70;;;;;;5092660;28;20059;-69
2021/06/10 05:13:13;;;;;;;10.13;7.07;;;25.50;99.40;;;;;;5093010;28;20545;-69
2021/06/10 05:16:17;;;;;;;9.82;7.15;;;26.70;98.40;;;;;;5092606;28;20055;-70
2021/06/10 05:19:21;;;;;;;10.10;6.90;;;26.50;98.20;;;;;;5093158;28;20150;-69
2021/06/10 05:22:25;;;;;;;8.48;7.55;;;27.30;97.50;;;;;;5092074;28;20059;-70
2021/06/10 05:25:29;;;;;;;8.40;7.50;;;27.00;97.00;;;;;;5093103;28;20047;-69
2021/06/10 05:28:34;;;;;;;9.48;6.55;;;26.10;97.70;;;;;;5092340;28;20043;-69
2021/06/10 05:31:39;;;;;;;10.20;6.45;;;27.10;97.90;;;;;;5091581;28;20039;-70
2021/06/10 05:34:43;;;;;;;10.57;6.75;;;27.00;95.50;;;;;;5090246;28;20114;-69
2021/06/10 05:37:47;;;;;;;7.45;6.47;;;26.00;97.20;;;;;;5083240;28;20380;-70
2021/06/10 05:40:52;;;;;;;8.05;6.75;;;27.60;96.50;;;;;;5091499;28;20055;-69
2021/06/10 05:43:56;;;;;;;8.90;6.97;;;27.00;96.50;;;;;;5072301;28;20044;-70
2021/06/10 05:47:00;;;;;;;12.13;7.57;;;25.00;98.50;;;;;;5090153;28;20051;-70
2021/06/10 05:50:05;;;;;;;9.20;8.15;;;24.00;99.90;;;;;;5089936;28;20059;-70
2021/06/10 05:53:09;;;;;;;9.80;8.25;;;22.90;99.90;;;;;;5089625;28;20043;-70
2021/06/10 05:56:14;;;;;;;10.55;7.55;;;23.50;99.90;;;;;;5070996;28;20040;-70
2021/06/10 05:59:19;;;;;;;8.43;7.13;;;24.50;99.90;;;;;;5078668;28;20051;-71
2021/06/10 06:02:26;;;;;;;10.88;7.93;;;24.70;99.90;;;;;;5102475;28;20066;-70
2021/06/10 06:05:31;;;;;;;7.97;7.18;;;26.20;99.80;;;;;;5091852;28;20059;-71
2021/06/10 06:08:35;;;;;;;9.77;5.82;;;27.90;97.80;;;;;;5071820;28;20051;-70
2021/06/10 06:11:40;;;;;;;8.57;6.65;;;29.10;96.70;;;;;;5071137;28;20063;-70
2021/06/10 06:14:45;;;;;;;7.20;6.00;;;29.50;95.70;;;;;;5072027;28;20387;-69
2021/06/10 06:17:51;;;;;;;9.23;6.65;;;29.50;94.90;;;;;;5091607;28;20047;-70
2021/06/10 06:20:55;;;;;;;12.73;6.22;;;26.70;96.20;;;;;;5090546;28;20051;-70
2021/06/10 06:24:01;;;;;;;6.78;6.07;;;25.70;98.20;;;;;;5089418;28;20398;-70
2021/06/10 06:27:05;;;;;;;10.18;6.43;;;24.50;99.50;;;;;;5078696;28;20055;-69
2021/06/10 06:30:11;;;;;;;9.95;6.43;;;23.90;99.90;;;;;;5079988;28;20067;-69
2021/06/10 06:33:15;;;;;;;9.02;6.35;;;24.00;99.90;;;;;;5091437;28;20047;-69
2021/06/10 06:36:20;;;;;;;9.32;6.63;;;24.20;99.90;;;;;;5090334;28;20047;-69
2021/06/10 06:39:24;;;;;;;8.20;6.40;;;24.40;99.90;;;;;;5087615;28;20398;-69
2021/06/10 06:42:30;;;;;;;9.93;7.03;;;24.00;99.90;;;;;;5090767;28;20046;-69
2021/06/10 06:45:35;;;;;;;9.20;6.32;;;25.50;99.90;;;;;;5070642;28;20047;-69
2021/06/10 06:48:39;;;;;;;7.22;5.47;;;26.20;99.10;;;;;;5084570;28;20047;-69
2021/06/10 06:51:44;;;;;;;9.00;5.53;;;27.30;97.90;;;;;;5088496;28;20047;-69
2021/06/10 06:54:48;;;;;;;7.38;5.65;;;27.20;97.80;;;;;;5087844;28;20608;-69
2021/06/10 06:57:52;;;;;;;7.57;5.35;;;27.90;97.30;;;;;;5090299;28;20047;-70
2021/06/10 07:00:57;;;;;;;6.97;5.38;;;28.60;96.30;;;;;;5089615;28;20047;-70
2021/06/10 07:04:01;;;;;;;7.03;5.15;;;30.10;95.30;;;;;;5089219;28;20043;-69
2021/06/10 07:07:05;;;;;;;10.10;6.18;;;29.50;94.90;;;;;;5088893;28;20035;-69
2021/06/10 07:10:10;;;;;;;9.38;5.93;;;27.40;96.60;;;;;;5070030;28;20498;-69
2021/06/10 07:13:14;;;;;;;7.40;5.32;;;27.30;97.00;;;;;;5089465;28;20047;-69
2021/06/10 07:16:18;;;;;;;7.57;5.40;;;28.20;96.30;;;;;;5087562;28;20494;-69
2021/06/10 07:19:22;;;;;;;5.90;5.40;;;27.30;94.50;;;;;;5086978;28;20051;-70
2021/06/10 07:22:37;;;;;;;10.07;6.07;;;27.00;96.60;;;;;;5085185;28;20047;-70
2021/06/10 07:25:42;;;;;;;8.95;5.70;;;28.30;95.70;;;;;;5089190;28;20062;-69
2021/06/10 07:28:46;;;;;;;8.32;5.78;;;28.50;96.50;;;;;;5090117;28;20047;-68
2021/06/10 07:31:50;;;;;;;7.55;5.10;;;30.60;94.50;;;;;;5089892;28;20382;-68
2021/06/10 07:34:54;;;;;;;6.05;4.82;;;31.50;93.10;;;;;;5088998;28;20043;-68
2021/06/10 07:37:59;;;;;;;8.50;5.60;;;31.30;93.50;;;;;;5070107;28;20052;-69
2021/06/10 07:41:03;;;;;;;5.95;4.47;;;30.30;93.70;;;;;;5075192;28;20055;-69
2021/06/10 07:44:07;;;;;;;7.70;5.18;;;31.80;92.50;;;;;;5089342;28;20097;-69
2021/06/10 07:47:11;;;;;;;8.23;4.50;;;31.60;92.50;;;;;;5087325;28;20667;-69
2021/06/10 07:50:16;;;;;;;10.35;5.07;;;31.10;93.10;;;;;;5087016;28;20509;-69
2021/06/10 07:53:20;;;;;;;8.57;5.05;;;31.60;92.00;;;;;;5082633;28;20039;-70
2021/06/10 07:56:25;;;;;;;8.38;4.65;;;32.60;91.80;;;;;;5070115;28;20040;-71
2021/06/10 07:59:32;;;;;;;6.03;4.82;;;33.40;91.50;;;;;;5089680;28;20043;-70
2021/06/10 08:02:36;;;;;;;7.93;4.97;;;33.70;90.60;;;;;;5088999;28;20050;-70
2021/06/10 08:05:40;;;;;;;6.72;4.50;;;32.80;90.50;;;;;;5085370;28;20090;-70
2021/06/10 08:08:44;;;;;;;7.13;4.45;;;33.10;89.70;;;;;;5087756;28;20501;-70
2021/06/10 08:11:48;;;;;;;10.32;4.45;;;33.90;89.70;;;;;;5070964;28;20044;-70
2021/06/10 08:14:52;;;;;;;5.63;5.10;;;32.80;89.10;;;;;;5084031;28;20047;-70
2021/06/10 08:17:58;;;;;;;6.63;4.90;;;34.30;86.70;;;;;;5083434;28;20053;-71
2021/06/10 08:21:02;;;;;;;9.38;4.80;;;34.60;88.20;;;;;;5071454;28;20051;-70
2021/06/10 08:24:06;;;;;;;7.45;4.80;;;34.00;85.50;;;;;;5073955;28;20044;-69
2021/06/10 08:27:11;;;;;;;4.93;4.43;;;34.70;85.50;;;;;;5074325;28;20043;-70
2021/06/10 08:30:17;;;;;;;5.18;4.40;;;34.60;84.80;;;;;;5090619;28;20398;-69
2021/06/10 08:33:22;;;;;;;6.38;4.40;;;35.40;84.80;;;;;;5079971;28;20552;-70
2021/06/10 08:36:26;;;;;;;6.32;4.25;;;35.90;83.80;;;;;;5081768;28;20051;-70
2021/06/10 08:39:32;;;;;;;8.80;4.53;;;36.10;81.60;;;;;;5091355;28;20370;-70
2021/06/10 08:42:37;;;;;;;6.07;4.57;;;34.50;83.70;;;;;;5093577;28;20055;-70
2021/06/10 08:45:45;;;;;;;5.93;3.83;;;37.10;82.20;;;;;;5092340;28;20059;-70
2021/06/10 08:48:51;;;;;;;5.03;4.53;;;39.40;80.20;;;;;;5088873;28;21472;-69
2021/06/10 08:51:56;;;;;;;7.75;5.00;;;37.40;78.30;;;;;;5071829;28;20051;-69
2021/06/10 08:55:02;;;;;;;5.47;4.32;;;35.90;79.70;;;;;;5089779;28;20494;-69
2021/06/10 08:58:06;;;;;;;5.93;4.43;;;36.20;81.60;;;;;;5073169;28;20039;-69
2021/06/10 09:01:13;;;;;;;8.45;4.78;;;37.00;80.00;;;;;;5072390;28;20047;-70
2021/06/10 09:04:17;;;;;;;5.93;4.05;;;36.90;79.60;;;;;;5072897;28;20048;-70
2021/06/10 09:07:46;;;;;;;8.18;4.88;;;38.50;78.10;;;;;;5073423;28;20039;-69
2021/06/10 09:11:02;;;;;;;5.30;4.07;;;38.00;78.50;;;;;;5072252;28;20044;-70
2021/06/10 09:14:09;;;;;;;6.50;4.25;;;39.00;77.10;;;;;;5081311;28;20039;-70
2021/06/10 09:17:26;;;;;;;5.22;4.70;;;40.50;75.70;;;;;;5092072;28;20055;-70
2021/06/10 09:20:47;;;;;;;6.43;4.85;;;39.70;75.60;;;;;;5084290;28;20042;-70
2021/06/10 09:23:51;;;;;;;6.95;4.75;;;40.00;72.70;;;;;;5073461;28;20051;-70
2021/06/10 09:27:09;;;;;;;5.07;4.50;;;41.30;74.40;;;;;;5074650;28;20055;-69
2021/06/10 09:30:37;;;;;;;6.23;5.03;;;40.60;75.30;;;;;;5090053;28;20051;-70
2021/06/10 09:33:43;;;;;;;5.93;5.13;;;37.20;73.10;;;;;;5091294;28;20047;-70
2021/06/10 09:36:47;;;;;;;5.50;4.95;;;37.80;75.40;;;;;;5087704;28;20055;-69
2021/06/10 09:39:54;;;;;;;6.18;5.20;;;40.00;73.40;;;;;;5089246;28;20540;-69
2021/06/10 09:42:59;;;;;;;8.85;5.00;;;41.10;72.60;;;;;;5089180;28;20050;-70
2021/06/10 09:46:03;;;;;;;5.53;4.82;;;39.90;70.00;;;;;;5088838;28;20063;-70
2021/06/10 09:49:08;;;;;;;5.72;4.32;;;38.70;73.00;;;;;;5090100;28;20039;-69
2021/06/10 09:52:12;;;;;;;6.05;4.45;;;41.20;71.20;;;;;;5080445;28;20047;-70
2021/06/10 09:55:32;;;;;;;9.02;4.65;;;40.40;71.50;;;;;;5089545;28;20039;-69
2021/06/10 09:58:41;;;;;;;3.83;3.45;;;40.10;70.80;;;;;;5082515;28;21581;-69
2021/06/10 10:02:09;;;;;;;6.82;3.53;;;41.90;69.60;;;;;;5074189;28;20055;-70
2021/06/10 10:05:13;;;;;;;4.72;3.85;;;41.70;67.30;;;;;;5091836;28;20486;-69
2021/06/10 10:08:18;;;;;;;4.38;3.88;;;41.20;67.40;;;;;;5091131;28;20055;-70
2021/06/10 10:11:23;;;;;;;8.30;4.10;;;41.20;68.30;;;;;;5091598;28;20047;-70
2021/06/10 10:14:28;;;;;;;8.57;3.88;;;42.90;66.10;;;;;;5092356;28;20414;-71
2021/06/10 10:17:34;;;;;;;5.93;3.80;;;43.70;63.50;;;;;;5091797;28;20047;-71
2021/06/10 10:20:42;;;;;;;8.05;4.00;;;43.20;61.60;;;;;;5091485;28;20043;-69
2021/06/10 10:23:47;;;;;;;6.78;4.53;;;41.10;63.90;;;;;;5091434;28;20118;-69
2021/06/10 10:26:51;;;;;;;5.70;4.10;;;38.80;64.60;;;;;;5076478;28;20055;-69
2021/06/10 10:29:55;;;;;;;7.43;5.60;;;36.50;69.10;;;;;;5091420;28;20414;-68
2021/06/10 10:33:16;;;;;;;15.30;7.07;;;34.90;72.00;;;;;;5090064;28;20577;-68
2021/06/10 10:36:27;;;;;;;15.65;8.55;;;33.50;83.40;;;;;;5082541;28;20039;-67
2021/06/10 10:39:36;;;;;;;12.70;7.97;;;32.10;89.00;;;;;;5091435;28;20482;-67
2021/06/10 10:42:40;;;;;;;10.73;8.77;;;31.40;89.20;;;;;;5090100;28;20490;-68
2021/06/10 10:45:45;;;;;;;10.45;8.20;;;30.20;91.60;;;;;;5091494;28;20047;-66
2021/06/10 10:48:51;;;;;;;9.20;7.10;;;30.20;91.30;;;;;;5091315;28;20498;-67
2021/06/10 10:52:14;;;;;;;8.80;7.47;;;30.70;88.60;;;;;;5089143;28;20058;-68
2021/06/10 10:55:27;;;;;;;11.95;7.03;;;31.70;88.50;;;;;;5082240;28;20058;-67
2021/06/10 10:58:32;;;;;;;7.70;5.93;;;33.90;83.40;;;;;;5089285;28;20043;-68
2021/06/10 11:01:36;;;;;;;10.65;5.68;;;35.70;80.00;;;;;;5087351;28;20473;-68
2021/06/10 11:04:49;;;;;;;5.20;4.70;;;36.90;75.80;;;;;;5083634;28;20035;-68
2021/06/10 11:07:55;;;;;;;7.25;4.57;;;38.10;73.40;;;;;;5090971;28;20043;-69
2021/06/10 11:11:03;;;;;;;6.35;4.78;;;39.30;70.70;;;;;;5087767;28;20043;-70
2021/06/10 11:14:33;;;;;;;5.80;4.57;;;39.50;69.70;;;;;;5088017;28;20054;-70
2021/06/10 11:17:44;;;;;;;9.00;5.15;;;39.30;67.30;;;;;;5084573;28;20039;-70
2021/06/10 11:20:49;;;;;;;6.65;4.40;;;38.80;69.50;;;;;;5089135;28;20039;-70
2021/06/10 11:24:16;;;;;;;5.70;4.35;;;38.60;67.80;;;;;;5088038;28;20047;-70
2021/06/10 11:27:42;;;;;;;6.97;4.38;;;38.50;65.70;;;;;;5088109;28;20046;-69
2021/06/10 11:30:49;;;;;;;6.00;4.18;;;38.40;65.10;;;;;;5087424;28;20532;-70
2021/06/10 11:33:54;;;;;;;5.63;5.10;;;38.30;64.40;;;;;;5054653;28;20051;-69
2021/06/10 11:36:58;;;;;;;8.80;4.65;;;37.10;65.20;;;;;;5056625;28;20047;-70
2021/06/10 11:40:03;;;;;;;6.88;4.90;;;36.90;66.90;;;;;;5062891;28;20047;-70
2021/06/10 11:43:10;;;;;;;7.28;5.28;;;35.90;67.00;;;;;;5072663;28;20686;-69
2021/06/10 11:46:16;;;;;;;5.85;5.32;;;35.10;68.40;;;;;;5066392;28;20623;-70
2021/06/10 11:49:31;;;;;;;9.18;5.05;;;34.70;71.90;;;;;;5064557;28;20046;-69
2021/06/10 11:52:53;;;;;;;5.22;4.72;;;35.50;68.40;;;;;;5065424;28;20052;-70
2021/06/10 11:55:58;;;;;;;6.32;4.88;;;36.90;68.40;;;;;;5071869;28;20043;-71
2021/06/10 11:59:27;;;;;;;5.05;4.57;;;36.40;66.90;;;;;;5083901;28;20070;-71
2021/06/10 12:02:32;;;;;;;6.05;5.18;;;34.20;67.00;;;;;;5069838;28;20056;-71
2021/06/10 12:05:47;;;;;;;5.20;4.70;;;32.40;70.00;;;;;;5074635;28;20048;-71
2021/06/10 12:08:51;;;;;;;13.45;5.43;;;32.90;71.50;;;;;;5069974;28;20434;-71
2021/06/10 12:11:55;;;;;;;10.38;5.47;;;33.00;72.10;;;;;;5066738;28;20059;-72
2021/06/10 12:15:00;;;;;;;9.88;5.35;;;33.00;72.60;;;;;;5063355;28;20052;-71
2021/06/10 12:18:07;;;;;;;7.15;5.25;;;32.90;74.20;;;;;;5067628;28;20403;-70
2021/06/10 12:21:32;;;;;;;7.38;5.00;;;32.80;75.50;;;;;;5062474;28;20051;-72
2021/06/10 12:24:43;;;;;;;7.35;4.72;;;32.50;74.20;;;;;;5068710;28;20067;-71
2021/06/10 12:27:48;;;;;;;16.92;6.32;;;32.20;73.90;;;;;;5091362;28;20035;-71
2021/06/10 12:31:02;;;;;;;10.00;6.88;;;31.10;76.80;;;;;;5060075;28;20047;-71
2021/06/10 12:34:09;;;;;;;7.32;6.18;;;28.40;82.70;;;;;;5085643;28;20035;-70
2021/06/10 12:37:13;;;;;;;8.52;5.85;;;26.90;83.40;;;;;;5086598;28;20493;-70
2021/06/10 12:40:18;;;;;;;7.97;6.25;;;26.90;82.20;;;;;;5061919;28;20083;-72
2021/06/10 12:43:24;;;;;;;10.15;5.05;;;27.20;85.90;;;;;;5064885;28;20043;-72
2021/06/10 12:46:31;;;;;;;7.47;6.45;;;27.70;83.40;;;;;;5069004;28;20067;-69
2021/06/10 12:49:37;;;;;;;7.18;6.47;;;28.50;83.10;;;;;;5071986;28;20039;-68
2021/06/10 12:52:41;;;;;;;9.98;7.18;;;28.30;89.00;;;;;;5082353;28;20052;-68
2021/06/10 12:55:45;;;;;;;16.42;7.85;;;27.60;89.40;;;;;;5076669;28;20044;-68
2021/06/10 12:58:51;;;;;;;21.80;13.68;;;26.90;93.80;;;;;;5066810;28;20047;-67
2021/06/10 13:02:05;;;;;;;10.35;8.93;;;25.20;99.10;;;;;;5067299;28;20091;-69
2021/06/10 13:05:09;;;;;;;15.18;12.55;;;22.90;99.90;;;;;;5071386;28;20054;-66
2021/06/10 13:08:13;;;;;;;12.60;10.60;;;21.90;99.90;;;;;;5088577;28;20043;-67
2021/06/10 13:11:19;;;;;;;13.07;11.00;;;22.40;99.90;;;;;;5089808;28;20047;-66
2021/06/10 13:14:23;;;;;;;10.77;8.30;;;23.10;99.90;;;;;;5092800;28;20043;-68
2021/06/10 13:17:47;;;;;;;8.65;7.80;;;24.10;99.90;;;;;;5092734;28;20035;-68
2021/06/10 13:20:56;;;;;;;6.85;6.18;;;24.90;99.90;;;;;;5064513;28;20048;-68
2021/06/10 13:24:00;;;;;;;7.30;6.50;;;25.70;99.90;;;;;;5061260;28;20052;-69
2021/06/10 13:27:18;;;;;;;8.70;6.85;;;26.00;99.90;;;;;;5064298;28;20056;-66
2021/06/10 13:30:22;;;;;;;8.00;6.75;;;26.60;99.90;;;;;;5063010;28;20421;-68
2021/06/10 13:33:27;;;;;;;7.07;6.18;;;26.80;99.90;;;;;;5071824;28;20071;-69
2021/06/10 13:40:01;;;;;;;5.95;5.43;;;27.40;99.90;;;;;;5055077;28;20059;-67
2021/06/10 13:43:07;;;;;;;6.18;5.50;;;28.10;98.80;;;;;;5081934;28;20039;-71
2021/06/10 13:46:11;;;;;;;7.18;5.65;;;28.00;96.70;;;;;;5088558;28;20047;-72
2021/06/10 13:49:16;;;;;;;8.38;5.88;;;27.90;96.30;;;;;;5088809;28;20047;-69
2021/06/10 13:52:21;;;;;;;7.25;6.00;;;27.60;97.00;;;;;;5088005;28;20051;-70
2021/06/10 13:55:26;;;;;;;7.43;6.65;;;27.20;96.90;;;;;;5090630;28;20532;-70
2021/06/10 13:58:30;;;;;;;7.28;6.55;;;26.90;97.90;;;;;;5089570;28;20394;-72
2021/06/10 14:01:35;;;;;;;6.70;4.95;;;26.90;98.30;;;;;;5087008;28;20054;-71
2021/06/10 14:04:40;;;;;;;6.15;5.45;;;25.60;97.70;;;;;;5079714;28;20047;-71
2021/06/10 14:07:45;;;;;;;7.25;5.88;;;24.50;99.20;;;;;;5085884;28;20043;-71
2021/06/10 14:10:49;;;;;;;13.60;7.82;;;24.20;99.90;;;;;;5088483;28;20047;-71
2021/06/10 14:13:53;;;;;;;16.60;10.10;;;23.30;98.60;;;;;;5087747;28;20058;-71
2021/06/10 14:16:57;;;;;;;18.60;9.57;;;23.00;97.70;;;;;;5087972;28;20042;-72
2021/06/10 14:20:03;;;;;;;18.38;10.18;;;23.00;98.40;;;;;;5088550;28;20048;-71
2021/06/10 14:23:08;;;;;;;19.38;9.65;;;23.10;98.80;;;;;;5082115;28;20042;-71
2021/06/10 14:26:13;;;;;;;12.23;7.03;;;23.30;98.70;;;;;;5061451;28;20047;-70
2021/06/10 14:32:30;;;;;;;11.18;6.95;;;23.30;99.90;;;;;;5087445;28;20047;-71
2021/06/10 14:35:36;;;;;;;26.30;9.52;;;23.40;99.90;;;;;;5082531;28;20051;-69
2021/06/10 14:38:40;;;;;;;18.02;9.68;;;22.90;99.90;;;;;;5071835;28;20044;-68
2021/06/10 14:41:45;;;;;;;21.83;10.90;;;22.20;99.90;;;;;;5069843;28;20040;-70
2021/06/10 14:44:50;;;;;;;22.77;10.43;;;21.50;99.90;;;;;;5070305;28;20043;-68
2021/06/10 14:47:54;;;;;;;22.60;11.02;;;20.80;99.90;;;;;;5060473;28;20056;-67
2021/06/10 14:51:00;;;;;;;18.23;11.20;;;20.10;99.90;;;;;;5072396;28;20051;-68
2021/06/10 14:54:04;;;;;;;17.52;10.20;;;19.50;99.90;;;;;;5066260;28;20048;-67
2021/06/10 14:57:10;;;;;;;20.00;11.23;;;19.00;99.90;;;;;;5067609;28;20120;-67
2021/06/10 15:00:16;;;;;;;19.52;12.35;;;18.70;99.90;;;;;;5070222;28;20795;-67
2021/06/10 15:03:21;;;;;;;16.80;12.00;;;18.70;99.90;;;;;;5067298;28;20055;-66
2021/06/10 15:06:25;;;;;;;18.10;11.60;;;18.80;99.90;;;;;;5069780;28;20039;-66
2021/06/10 15:09:30;;;;;;;16.85;11.57;;;19.00;99.90;;;;;;5070412;28;20066;-65
2021/06/10 15:12:35;;;;;;;13.30;11.30;;;19.10;99.90;;;;;;5060566;28;20509;-67
2021/06/10 15:15:39;;;;;;;17.05;11.50;;;19.30;99.90;;;;;;5059868;28;20048;-67
2021/06/10 15:18:44;;;;;;;22.67;12.32;;;19.60;99.90;;;;;;5062655;28;20383;-67
2021/06/10 15:21:48;;;;;;;18.42;11.70;;;19.50;99.90;;;;;;5062654;28;20083;-67
2021/06/10 15:24:53;;;;;;;13.68;10.35;;;19.50;99.90;;;;;;5081137;28;20054;-68
2021/06/10 15:27:57;;;;;;;18.83;9.85;;;19.20;99.90;;;;;;5087184;28;20051;-68
2021/06/10 15:31:02;;;;;;;19.70;10.98;;;19.30;99.90;;;;;;5049616;28;20055;-68
2021/06/10 15:34:08;;;;;;;12.43;10.50;;;19.50;99.90;;;;;;5068189;28;20051;-69
2021/06/10 15:37:12;;;;;;;16.95;12.65;;;19.70;99.90;;;;;;5064545;28;20063;-68
2021/06/10 15:40:16;;;;;;;13.18;11.02;;;20.00;99.90;;;;;;5062938;28;20039;-68
2021/06/10 15:43:20;;;;;;;14.40;11.57;;;20.10;99.90;;;;;;5070180;28;21420;-69
2021/06/10 15:46:25;;;;;;;16.10;11.27;;;20.20;99.90;;;;;;5074235;28;20062;-68
2021/06/10 15:49:29;;;;;;;13.07;9.73;;;20.10;99.90;;;;;;5089165;28;20039;-68
2021/06/10 15:52:33;;;;;;;12.10;10.80;;;20.00;99.90;;;;;;5076657;28;20051;-69
2021/06/10 15:55:38;;;;;;;16.33;12.13;;;20.00;99.90;;;;;;5088817;28;20039;-69
2021/06/10 15:58:43;;;;;;;13.02;10.32;;;19.80;99.90;;;;;;5085944;28;20513;-69
2021/06/10 16:01:47;;;;;;;15.05;12.23;;;19.70;99.90;;;;;;5089425;28;20043;-69
2021/06/10 16:04:53;;;;;;;12.60;10.20;;;20.00;99.90;;;;;;5062936;28;20067;-68
2021/06/10 16:08:01;;;;;;;15.23;11.15;;;20.10;99.90;;;;;;5072852;28;20058;-69
2021/06/10 16:11:08;;;;;;;10.05;8.98;;;20.20;99.90;;;;;;5069536;28;20036;-69